Time;durP1;ratioP1;P1;durP2;ratioP2;P2;SDS_P1;SDS_P2;PMS_P1;PMS_P2;Temp;Humidity;BMP_temperature;BMP_pressure;BME280_temperature;BME280_humidity;BME280_pressure;Samples;Min_cycle;Max_cycle;Signal;HPM_P1;HPM_P2
2022/02/08 00:01:38;;;;;;;2.47;1.17;;;;;;;;;;5096167;27;20486;-88
2022/02/08 00:04:05;;;;;;;2.10;1.20;;;;;;;;;;5130738;27;20444;-88
2022/02/08 00:06:42;;;;;;;1.00;0.70;;;;;;;;;;5124000;27;20453;-87
2022/02/08 00:09:10;;;;;;;1.10;0.60;;;;;;;;;;5110175;28;20548;-88
2022/02/08 00:11:38;;;;;;;1.73;1.17;;;;;;;;;;5110028;28;21098;-88
2022/02/08 00:14:07;;;;;;;1.90;0.73;;;;;;;;;;5110369;28;20441;-89
2022/02/08 00:16:34;;;;;;;1.80;1.07;;;;;;;;;;5108106;28;20540;-90
2022/02/08 00:19:01;;;;;;;1.43;1.07;;;;;;;;;;5109967;28;20440;-90
2022/02/08 00:21:28;;;;;;;2.17;1.20;;;;;;;;;;5110682;28;20997;-89
2022/02/08 00:23:55;;;;;;;1.70;0.80;;;;;;;;;;5111006;28;20448;-89
2022/02/08 00:26:23;;;;;;;1.70;1.20;;;;;;;;;;5110878;28;20445;-91
2022/02/08 00:28:50;;;;;;;0.87;0.70;;;;;;;;;;5110474;28;20447;-89
2022/02/08 00:31:18;;;;;;;4.50;0.80;;;1.50;99.90;;;;;;5110396;28;20458;-89
2022/02/08 00:33:46;;;;;;;18.00;1.93;;;;;;;;;;5109670;28;20449;-88
2022/02/08 00:36:13;;;;;;;0.60;0.50;;;;;;;;;;5110466;28;20510;-91
2022/02/08 00:38:40;;;;;;;5.83;1.17;;;;;;;;;;5110612;28;20447;-89
2022/02/08 00:41:08;;;;;;;2.00;1.20;;;;;;;;;;5110364;28;20446;-92
2022/02/08 00:43:39;;;;;;;4.03;1.43;;;;;;;;;;5110474;28;20480;-89
2022/02/08 00:46:12;;;;;;;8.80;2.30;;;;;;;;;;5107601;28;20840;-90
2022/02/08 00:48:42;;;;;;;2.67;1.50;;;1.60;99.90;;;;;;5109804;28;20452;-89
2022/02/08 00:51:10;;;;;;;1.77;0.70;;;1.70;99.90;;;;;;5110004;28;20444;-88
2022/02/08 00:53:38;;;;;;;3.20;1.77;;;;;;;;;;5103636;28;20471;-90
2022/02/08 00:56:05;;;;;;;10.23;1.47;;;1.70;99.90;;;;;;5096770;28;20453;-90
2022/02/08 00:58:32;;;;;;;3.43;1.30;;;;;;;;;;5096543;28;20518;-91
2022/02/08 01:00:59;;;;;;;3.27;0.80;;;;;;;;;;5096958;28;20448;-88
2022/02/08 01:03:27;;;;;;;8.43;1.33;;;;;;;;;;5095583;28;20497;-90
2022/02/08 01:06:04;;;;;;;2.00;0.63;;;1.70;99.90;;;;;;5096390;28;20500;-88
2022/02/08 01:08:33;;;;;;;2.77;1.37;;;;;;;;;;5094773;28;20444;-89
2022/02/08 01:11:00;;;;;;;5.90;1.93;;;;;;;;;;5096993;28;20478;-91
2022/02/08 01:13:28;;;;;;;1.00;0.87;;;;;;;;;;5096338;28;20967;-90
2022/02/08 01:15:56;;;;;;;3.60;1.30;;;;;;;;;;5096310;28;20835;-89
2022/02/08 01:18:23;;;;;;;0.53;0.43;;;;;;;;;;5095190;28;20446;-90
2022/02/08 01:20:51;;;;;;;1.87;0.93;;;;;;;;;;5098441;27;20460;-89
2022/02/08 01:23:20;;;;;;;4.30;1.00;;;1.70;99.90;;;;;;5097873;27;20486;-90
2022/02/08 01:25:51;;;;;;;1.50;1.00;;;;;;;;;;5096293;28;20467;-90
2022/02/08 01:28:26;;;;;;;4.70;1.50;;;;;;;;;;5097008;27;20475;-91
2022/02/08 01:31:00;;;;;;;0.50;0.40;;;;;;;;;;5095808;28;20449;-90
2022/02/08 01:33:52;;;;;;;0.50;0.40;;;1.70;99.90;;;;;;5095263;28;20444;-88
2022/02/08 01:39:16;;;;;;;1.10;0.80;;;1.80;99.90;;;;;;5096336;28;20455;-91
2022/02/08 01:42:00;;;;;;;1.20;0.47;;;1.70;99.90;;;;;;5095281;28;20551;-90
2022/02/08 01:44:33;;;;;;;2.00;0.50;;;;;;;;;;5095982;28;20445;-89
2022/02/08 01:47:10;;;;;;;3.80;1.53;;;;;;;;;;5095177;28;20454;-88
2022/02/08 01:49:49;;;;;;;4.53;0.80;;;;;;;;;;5095270;28;20449;-90
2022/02/08 01:52:19;;;;;;;3.43;1.30;;;;;;;;;;5097885;27;20461;-89
2022/02/08 01:54:47;;;;;;;4.53;1.53;;;1.80;99.90;;;;;;5095798;28;20471;-90
2022/02/08 01:57:14;;;;;;;1.93;0.90;;;;;;;;;;5095459;28;20450;-89
2022/02/08 01:59:41;;;;;;;1.50;0.77;;;;;;;;;;5095319;28;20972;-88
2022/02/08 02:02:09;;;;;;;7.27;1.40;;;1.90;99.90;;;;;;5097589;27;20485;-89
2022/02/08 02:04:36;;;;;;;2.93;0.87;;;;;;;;;;5094209;28;20457;-89
2022/02/08 02:07:03;;;;;;;2.73;0.63;;;;;;;;;;5095468;28;20438;-90
2022/02/08 02:09:30;;;;;;;3.30;1.03;;;;;;;;;;5095338;28;20969;-88
2022/02/08 02:11:59;;;;;;;1.03;0.63;;;1.90;99.90;;;;;;5095166;28;20430;-89
2022/02/08 02:14:26;;;;;;;2.87;1.47;;;;;;;;;;5095119;28;20453;-89
2022/02/08 02:16:57;;;;;;;2.50;1.20;;;;;;;;;;5095183;28;20445;-91
2022/02/08 02:19:27;;;;;;;0.50;0.50;;;;;;;;;;5094601;28;20434;-91
2022/02/08 02:21:55;;;;;;;2.90;0.77;;;;;;;;;;5094718;28;20442;-90
2022/02/08 02:24:23;;;;;;;1.03;0.60;;;1.90;99.90;;;;;;5092905;28;20444;-89
2022/02/08 02:26:51;;;;;;;1.07;0.70;;;;;;;;;;5094698;28;20465;-88
2022/02/08 02:29:21;;;;;;;6.50;1.93;;;2.00;99.90;;;;;;5095250;28;20517;-89
2022/02/08 02:31:48;;;;;;;4.30;1.60;;;;;;;;;;5094815;28;20450;-89
2022/02/08 02:34:16;;;;;;;0.97;0.80;;;1.90;99.90;;;;;;5093891;28;20972;-89
2022/02/08 02:36:43;;;;;;;0.30;0.30;;;;;;;;;;5095178;28;20430;-90
2022/02/08 02:39:10;;;;;;;1.60;1.10;;;;;;;;;;5094845;28;20945;-89
2022/02/08 02:41:40;;;;;;;3.60;1.50;;;1.20;99.90;;;;;;5094804;28;20499;-90
2022/02/08 02:44:09;;;;;;;3.10;0.90;;;2.10;99.90;;;;;;5094390;28;20494;-90
2022/02/08 02:46:36;;;;;;;2.50;1.40;;;;;;;;;;5094378;28;20446;-90
2022/02/08 02:49:03;;;;;;;2.73;1.47;;;2.00;99.90;;;;;;5093768;28;20539;-88
2022/02/08 02:51:30;;;;;;;4.57;1.10;;;;;;;;;;5094222;28;20451;-90
2022/02/08 02:53:58;;;;;;;2.43;1.23;;;;;;;;;;5094668;28;20491;-89
2022/02/08 02:56:25;;;;;;;1.00;0.80;;;;;;;;;;5094442;28;20461;-90
2022/02/08 02:59:00;;;;;;;1.50;1.00;;;1.90;99.90;;;;;;5094226;28;20471;-88
2022/02/08 03:01:32;;;;;;;2.13;1.27;;;;;;;;;;5092754;28;20459;-89
2022/02/08 03:18:27;;;;;;;2.60;1.17;;;;;;;;;;5093974;28;20423;-90
2022/02/08 03:20:54;;;;;;;4.17;1.30;;;;;;;;;;5093940;28;20502;-89
2022/02/08 03:23:21;;;;;;;0.80;0.60;;;;;;;;;;5093755;28;20496;-89
2022/02/08 03:25:48;;;;;;;0.80;0.60;;;;;;;;;;5094250;28;20455;-89
2022/02/08 03:28:16;;;;;;;2.17;1.23;;;;;;;;;;5093936;28;20446;-89
2022/02/08 03:30:44;;;;;;;0.73;0.20;;;2.10;99.90;;;;;;5094420;28;20434;-91
2022/02/08 03:33:11;;;;;;;2.10;0.87;;;;;;;;;;5093708;28;20522;-87
2022/02/08 03:35:38;;;;;;;1.70;1.20;;;;;;;;;;5094044;28;20454;-90
2022/02/08 03:38:08;;;;;;;6.50;0.90;;;;;;;;;;5096484;28;20455;-91
2022/02/08 03:40:41;;;;;;;4.23;0.60;;;;;;;;;;5093859;28;20419;-91
2022/02/08 03:43:26;;;;;;;1.47;0.80;;;2.10;99.90;;;;;;5093583;28;20502;-89
2022/02/08 03:45:58;;;;;;;2.83;1.10;;;2.10;99.90;;;;;;5093596;28;20437;-90
2022/02/08 03:48:27;;;;;;;1.10;0.93;;;;;;;;;;5093238;28;20840;-89
2022/02/08 03:50:56;;;;;;;2.13;1.13;;;;;;;;;;5093829;28;20444;-90
2022/02/08 03:53:25;;;;;;;1.93;0.50;;;2.10;99.90;;;;;;5093742;28;20432;-90
2022/02/08 03:55:53;;;;;;;0.57;0.40;;;;;;;;;;5093828;28;20464;-89
2022/02/08 03:58:20;;;;;;;2.87;0.80;;;;;;;;;;5093715;28;20469;-89
2022/02/08 04:01:02;;;;;;;0.37;0.23;;;;;;;;;;5094019;28;20437;-89
2022/02/08 04:03:33;;;;;;;7.93;2.77;;;2.10;99.90;;;;;;5092647;28;20584;-91
2022/02/08 04:06:01;;;;;;;2.30;0.80;;;;;;;;;;5093682;28;20875;-90
2022/02/08 04:08:30;;;;;;;0.90;0.70;;;;;;;;;;5093682;28;20828;-90
2022/02/08 04:10:59;;;;;;;2.83;0.83;;;;;;;;;;5093861;28;20454;-90
2022/02/08 04:13:32;;;;;;;1.17;0.43;;;;;;;;;;5093919;28;20439;-91
2022/02/08 04:16:06;;;;;;;0.50;0.37;;;;;;;;;;5094024;28;20445;-91
2022/02/08 04:32:38;;;;;;;2.00;0.77;;;;;;;;;;5076147;28;20478;-89
2022/02/08 04:35:34;;;;;;;1.93;0.63;;;2.50;99.90;;;;;;5096268;28;20518;-91
2022/02/08 04:40:51;;;;;;;0.90;0.50;;;;;;;;;;5097236;28;20439;-90
2022/02/08 04:43:27;;;;;;;5.30;1.23;;;;;;;;;;5096418;28;20627;-90
2022/02/08 04:45:58;;;;;;;1.10;0.83;;;;;;;;;;5096948;28;20440;-90
2022/02/08 04:48:41;;;;;;;1.77;1.17;;;;;;;;;;5095661;28;20462;-90
2022/02/08 04:53:59;;;;;;;5.50;1.37;;;;;;;;;;5097037;28;20467;-92
2022/02/08 04:56:37;;;;;;;6.37;1.70;;;;;;;;;;5097111;28;20451;-91
2022/02/08 04:59:19;;;;;;;1.07;0.70;;;;;;;;;;5099112;27;20459;-90
2022/02/08 05:40:36;;;;;;;9.37;1.43;;;;;;;;;;5096055;28;20825;-91
2022/02/08 05:41:11;;;;;;;4.37;0.97;;;2.30;99.90;;;;;;5096144;28;20982;-91
2022/02/08 05:43:44;;;;;;;3.63;1.10;;;;;;;;;;5095553;28;20544;-89
2022/02/08 05:49:08;;;;;;;8.43;1.60;;;;;;;;;;5052706;28;20448;-90
2022/02/08 05:54:21;;;;;;;1.60;1.40;;;2.40;99.90;;;;;;5095692;28;20442;-91
2022/02/08 05:56:52;;;;;;;1.73;1.27;;;2.40;99.90;;;;;;5095677;28;20540;-91
2022/02/08 05:59:20;;;;;;;3.00;1.70;;;;;;;;;;5095864;28;20431;-89
2022/02/08 06:01:47;;;;;;;4.53;1.83;;;;;;;;;;5095687;28;20941;-90
2022/02/08 06:04:14;;;;;;;1.90;1.17;;;;;;;;;;5094358;28;20489;-90
2022/02/08 06:06:41;;;;;;;5.33;1.53;;;;;;;;;;5095132;28;20540;-91
2022/02/08 06:09:09;;;;;;;4.73;1.80;;;;;;;;;;5095375;28;20455;-91
2022/02/08 06:11:38;;;;;;;3.60;2.20;;;;;;;;;;5095263;28;20455;-90
2022/02/08 06:14:07;;;;;;;0.90;0.80;;;2.60;99.90;;;;;;5095469;28;20473;-90
2022/02/08 06:16:34;;;;;;;0.70;0.43;;;;;;;;;;5095021;28;20452;-91
2022/02/08 06:19:02;;;;;;;1.37;0.90;;;2.60;99.90;;;;;;5094916;28;20451;-90
2022/02/08 06:21:30;;;;;;;5.63;0.93;;;;;;;;;;5095111;28;20452;-92
2022/02/08 06:23:57;;;;;;;3.90;1.23;;;;;;;;;;5095097;28;20498;-89
2022/02/08 06:26:24;;;;;;;2.83;1.17;;;;;;;;;;5095055;28;20459;-90
2022/02/08 06:29:02;;;;;;;1.80;0.60;;;;;;;;;;5095226;28;20448;-91
2022/02/08 06:31:30;;;;;;;0.50;0.40;;;2.60;99.90;;;;;;5095050;28;20502;-91
2022/02/08 06:33:58;;;;;;;4.63;1.53;;;;;;;;;;5093967;28;20462;-89
2022/02/08 06:36:25;;;;;;;2.77;0.83;;;;;;;;;;5094657;28;20950;-89
2022/02/08 06:38:52;;;;;;;2.80;0.53;;;;;;;;;;5096926;27;20546;-90
2022/02/08 06:41:19;;;;;;;4.40;1.20;;;;;;;;;;5093943;28;20475;-90
2022/02/08 06:43:47;;;;;;;12.30;2.17;;;;;;;;;;5094113;28;20997;-89
2022/02/08 06:46:14;;;;;;;3.87;1.00;;;;;;;;;;5094527;28;20452;-89
2022/02/08 06:48:42;;;;;;;3.07;1.10;;;2.80;99.90;;;;;;5093763;28;20467;-88
2022/02/08 06:51:09;;;;;;;4.80;1.80;;;;;;;;;;5058585;28;20449;-90
2022/02/08 06:53:36;;;;;;;0.60;0.57;;;;;;;;;;5094096;28;20799;-89
2022/02/08 06:56:04;;;;;;;0.40;0.30;;;;;;;;;;5093914;28;20458;-89
2022/02/08 06:58:46;;;;;;;2.00;0.80;;;;;;;;;;5093805;28;20539;-88
2022/02/08 07:01:13;;;;;;;0.50;0.40;;;;;;;;;;5094128;28;20525;-91
2022/02/08 07:03:41;;;;;;;2.37;0.87;;;;;;;;;;5093342;28;21012;-89
2022/02/08 07:06:09;;;;;;;5.73;1.53;;;2.90;99.90;;;;;;5094205;28;20965;-89
2022/02/08 07:08:36;;;;;;;3.23;0.90;;;;;;;;;;5093941;28;20915;-89
2022/02/08 07:11:03;;;;;;;5.10;1.30;;;;;;;;;;5093929;28;20456;-92
2022/02/08 07:13:31;;;;;;;5.40;1.40;;;;;;;;;;5093613;28;20463;-88
2022/02/08 07:15:58;;;;;;;1.13;0.53;;;;;;;;;;5093554;28;20451;-89
2022/02/08 07:18:25;;;;;;;4.60;1.40;;;;;;;;;;5092284;28;20450;-90
2022/02/08 07:20:52;;;;;;;1.10;0.63;;;;;;;;;;5093251;28;20441;-89
2022/02/08 07:23:20;;;;;;;1.10;0.57;;;3.20;99.90;;;;;;5093543;28;20829;-88
2022/02/08 07:25:47;;;;;;;3.33;1.10;;;;;;;;;;5093596;28;20460;-87
2022/02/08 07:28:14;;;;;;;5.63;1.43;;;;;;;;;;5093456;28;20450;-90
2022/02/08 07:30:43;;;;;;;1.13;0.80;;;;;;;;;;5093568;28;20451;-88
2022/02/08 07:33:10;;;;;;;1.20;0.60;;;;;;;;;;5092824;28;20445;-88
2022/02/08 07:35:48;;;;;;;4.70;1.10;;;;;;;;;;5093261;28;20452;-89
2022/02/08 07:38:22;;;;;;;0.57;0.57;;;;;;;;;;5093441;28;20449;-91
2022/02/08 07:43:35;;;;;;;1.10;0.57;;;3.40;99.90;;;;;;5093642;28;20594;-89
2022/02/08 07:46:03;;;;;;;2.00;1.03;;;;;;;;;;5093344;28;20448;-87
2022/02/08 07:48:30;;;;;;;1.20;0.80;;;;;;;;;;5092459;28;20451;-89
2022/02/08 07:50:57;;;;;;;1.03;0.40;;;;;;;;;;5092669;28;20507;-89
2022/02/08 07:53:27;;;;;;;4.00;1.43;;;;;;;;;;5093409;28;20453;-90
2022/02/08 07:55:55;;;;;;;5.97;1.53;;;4.30;99.90;;;;;;5093322;28;20496;-91
2022/02/08 07:58:24;;;;;;;9.43;2.67;;;;;;;;;;5093415;28;20467;-91
2022/02/08 08:00:52;;;;;;;6.97;2.63;;;;;;;;;;5093268;28;20516;-94
2022/02/08 08:03:19;;;;;;;7.90;2.03;;;;;;;;;;5095334;28;20494;-91
2022/02/08 08:05:46;;;;;;;1.90;1.03;;;;;;;;;;5066703;22;20495;-93
2022/02/08 08:08:14;;;;;;;3.03;0.93;;;;;;;;;;5038730;28;20466;-91
2022/02/08 08:10:45;;;;;;;4.23;1.30;;;;;;;;;;5041879;28;20481;-93
2022/02/08 08:13:17;;;;;;;2.87;0.93;;;3.60;99.90;;;;;;5038259;28;20978;-92
2022/02/08 08:15:49;;;;;;;1.37;0.70;;;;;;;;;;5037643;28;20446;-91
2022/02/08 08:18:25;;;;;;;1.30;1.10;;;;;;;;;;5038685;28;20455;-94
2022/02/08 08:20:53;;;;;;;2.80;1.20;;;;;;;;;;5038492;28;20443;-90
2022/02/08 08:23:20;;;;;;;3.70;1.00;;;;;;;;;;5038129;28;20434;-90
2022/02/08 08:25:49;;;;;;;3.07;0.80;;;;;;;;;;5040006;28;20493;-94
2022/02/08 08:28:20;;;;;;;2.70;1.50;;;3.90;99.90;;;;;;5040186;28;20462;-89
2022/02/08 08:30:48;;;;;;;9.20;3.67;;;;;;;;;;5037197;28;20431;-91
2022/02/08 08:33:15;;;;;;;5.00;2.00;;;;;;;;;;5041538;28;20553;-93
2022/02/08 08:35:42;;;;;;;5.37;2.43;;;;;;;;;;5053270;28;20493;-89
2022/02/08 08:38:16;;;;;;;1.57;1.30;;;;;;;;;;5050017;28;20450;-89
2022/02/08 08:40:53;;;;;;;3.57;1.57;;;;;;;;;;5027272;28;20499;-88
2022/02/08 08:49:22;;;;;;;1.73;0.93;;;;;;;;;;5029016;28;20430;-93
2022/02/08 08:51:58;;;;;;;1.00;0.60;;;;;;;;;;5045205;22;20499;-91
2022/02/08 08:54:26;;;;;;;3.90;1.23;;;;;;;;;;5049591;28;20442;-91
2022/02/08 08:56:55;;;;;;;2.23;0.67;;;;;;;;;;5039363;28;20468;-92
2022/02/08 08:59:23;;;;;;;0.87;0.60;;;;;;;;;;5040812;28;20971;-91
2022/02/08 09:01:51;;;;;;;13.60;1.07;;;;;;;;;;5041592;28;20450;-92
2022/02/08 09:04:19;;;;;;;1.63;0.80;;;;;;;;;;5042356;28;20484;-88
2022/02/08 09:06:49;;;;;;;10.70;0.93;;;5.80;99.90;;;;;;5041061;28;20484;-94
2022/02/08 09:09:20;;;;;;;3.00;1.13;;;;;;;;;;5041929;28;20456;-93
2022/02/08 09:12:02;;;;;;;2.40;1.00;;;;;;;;;;5036283;28;20535;-93
2022/02/08 09:14:44;;;;;;;2.73;1.20;;;6.10;99.90;;;;;;5035531;28;20459;-88
2022/02/08 09:25:58;;;;;;;1.90;0.60;;;;;;;;;;5019736;28;20513;-90
2022/02/08 09:28:39;;;;;;;3.77;1.13;;;;;;;;;;5018999;28;20537;-91
2022/02/08 09:31:13;;;;;;;3.50;0.73;;;6.60;99.90;;;;;;5017001;28;20457;-91
2022/02/08 09:33:40;;;;;;;1.00;0.57;;;;;;;;;;5015814;28;20500;-92
2022/02/08 09:36:07;;;;;;;3.73;1.00;;;;;;;;;;5012585;28;20854;-91
2022/02/08 09:38:35;;;;;;;3.77;1.10;;;;;;;;;;5016377;28;20453;-91
2022/02/08 09:41:03;;;;;;;2.47;1.00;;;6.70;99.90;;;;;;5016521;28;20455;-90
2022/02/08 09:43:30;;;;;;;8.43;1.83;;;;;;;;;;5016046;28;20448;-87
2022/02/08 09:46:00;;;;;;;3.40;1.10;;;6.80;99.90;;;;;;5014819;28;21042;-84
2022/02/08 09:48:38;;;;;;;3.20;0.83;;;7.10;99.90;;;;;;5013796;28;20509;-85
2022/02/08 09:51:06;;;;;;;3.10;0.93;;;7.10;99.90;;;;;;5017259;28;20451;-85
2022/02/08 09:53:35;;;;;;;3.77;0.80;;;;;;;;;;5034460;28;20490;-85
2022/02/08 09:56:05;;;;;;;3.53;0.80;;;;;;;;;;5034363;28;20562;-86
2022/02/08 09:58:33;;;;;;;4.40;0.90;;;;;;;;;;5034919;28;20953;-87
2022/02/08 10:01:06;;;;;;;1.27;0.90;;;7.50;99.90;;;;;;5034296;28;20456;-86
2022/02/08 10:03:34;;;;;;;3.97;0.97;;;7.50;99.90;;;;;;5033560;28;20458;-89
2022/02/08 10:06:01;;;;;;;2.37;0.50;;;;;;;;;;5034321;28;20514;-89
2022/02/08 10:08:29;;;;;;;2.73;0.70;;;;;;;;;;5034556;28;20451;-87
2022/02/08 10:10:59;;;;;;;1.43;0.70;;;;;;;;;;5028063;28;20451;-87
2022/02/08 10:13:38;;;;;;;3.13;1.07;;;7.80;99.90;;;;;;5023688;28;20450;-88
2022/02/08 10:19:04;;;;;;;3.53;0.70;;;;;;;;;;5013919;28;20957;-87
2022/02/08 10:21:43;;;;;;;1.97;0.67;;;;;;;;;;5014467;28;20485;-88
2022/02/08 10:24:17;;;;;;;0.90;0.40;;;8.30;99.90;;;;;;5014321;28;20944;-88
2022/02/08 10:26:58;;;;;;;1.00;0.90;;;8.90;99.90;;;;;;5013602;28;20604;-88
2022/02/08 10:29:37;;;;;;;2.40;1.30;;;8.60;99.90;;;;;;5014318;28;20448;-87
2022/02/08 10:37:43;;;;;;;11.00;1.83;;;;;;;;;;5014278;28;20557;-88
2022/02/08 10:40:12;;;;;;;9.03;1.03;;;10.00;99.90;;;;;;5013792;28;20462;-88
2022/02/08 10:42:40;;;;;;;2.90;1.63;;;9.80;99.90;;;;;;5021490;28;20448;-88
2022/02/08 10:45:21;;;;;;;3.70;1.17;;;10.20;99.90;;;;;;5033349;28;20514;-87
2022/02/08 10:47:55;;;;;;;1.77;1.20;;;10.30;98.30;;;;;;5033687;28;20959;-88
2022/02/08 10:50:24;;;;;;;7.97;2.33;;;9.80;99.50;;;;;;5032719;28;21033;-88
2022/02/08 10:52:51;;;;;;;3.33;1.20;;;;;;;;;;5033431;28;20486;-85
2022/02/08 11:00:49;;;;;;;7.10;1.40;;;;;;;;;;5053534;28;20462;-87
2022/02/08 11:03:25;;;;;;;3.60;1.13;;;;;;;;;;5052003;28;20795;-87
2022/02/08 11:08:57;;;;;;;5.30;1.10;;;;;;;;;;5027466;28;20870;-89
2022/02/08 11:11:56;;;;;;;5.80;0.93;;;;;;;;;;5033260;28;20458;-87
2022/02/08 11:14:35;;;;;;;1.97;1.00;;;;;;;;;;5032951;28;20542;-87
2022/02/08 11:22:57;;;;;;;5.00;1.20;;;;;;;;;;5152394;27;20535;-90
2022/02/08 11:25:29;;;;;;;4.27;0.87;;;11.50;99.90;;;;;;5151504;27;20453;-89
2022/02/08 11:28:07;;;;;;;6.37;1.13;;;11.50;99.90;;;;;;5151822;27;20443;-88
2022/02/08 11:30:44;;;;;;;3.83;1.23;;;11.80;98.20;;;;;;5151972;27;20442;-88
2022/02/08 11:39:20;;;;;;;4.83;0.97;;;10.30;99.90;;;;;;5151586;27;20564;-87
2022/02/08 11:44:53;;;;;;;2.33;1.30;;;10.00;99.90;;;;;;5151677;27;20484;-86
2022/02/08 11:47:31;;;;;;;21.70;9.40;;;10.10;99.90;;;;;;5151453;27;20447;-86
2022/02/08 11:50:37;;;;;;;5.67;1.57;;;;;;;;;;5150370;27;20503;-87
2022/02/08 11:58:53;;;;;;;4.10;1.10;;;10.00;99.90;;;;;;5134700;27;20483;-86
2022/02/08 12:01:27;;;;;;;2.50;0.80;;;;;;;;;;5151112;27;20568;-87
2022/02/08 12:04:15;;;;;;;2.47;1.20;;;;;;;;;;5150460;27;20953;-87
2022/02/08 12:07:04;;;;;;;5.70;0.97;;;10.00;99.90;;;;;;5151205;27;20443;-88
2022/02/08 12:09:38;;;;;;;6.70;2.13;;;9.90;99.90;;;;;;5151056;27;20491;-86
2022/02/08 12:12:35;;;;;;;1.47;0.80;;;10.10;99.90;;;;;;5130558;27;20455;-88
2022/02/08 12:32:03;;;;;;;13.20;5.90;;;10.10;99.90;;;;;;5129633;28;20430;-88
2022/02/08 12:35:07;;;;;;;14.90;8.03;;;;;;;;;;5114688;28;20444;-87
2022/02/08 12:52:15;;;;;;;1.70;0.70;;;10.50;99.90;;;;;;5115963;28;20858;-86
2022/02/08 12:54:43;;;;;;;8.40;0.93;;;10.20;99.90;;;;;;5115755;28;20555;-87
2022/02/08 12:57:25;;;;;;;1.80;0.90;;;;;;;;;;5115906;28;20809;-88
2022/02/08 13:00:10;;;;;;;1.30;0.70;;;9.90;99.90;;;;;;5115417;28;20531;-87
2022/02/08 14:06:18;;;;;;;2.60;1.23;;;;;;;;;;5135415;27;20423;-88
2022/02/08 14:25:50;;;;;;;1.20;0.60;;;8.60;99.90;;;;;;5053783;28;20959;-86
2022/02/08 14:31:37;;;;;;;1.20;0.83;;;;;;;;;;5071289;28;20491;-88
2022/02/08 14:37:04;;;;;;;8.73;1.17;;;;;;;;;;5102675;27;20453;-88
2022/02/08 15:07:55;;;;;;;3.27;0.83;;;;;;;;;;5134178;27;20471;-89
2022/02/08 15:10:25;;;;;;;5.23;0.80;;;;;;;;;;5133816;27;20544;-88
2022/02/08 15:12:55;;;;;;;2.60;0.70;;;;;;;;;;5134226;27;20489;-88
2022/02/08 15:15:31;;;;;;;1.60;1.23;;;8.30;99.90;;;;;;5134397;27;20511;-86
2022/02/08 15:17:58;;;;;;;1.70;0.60;;;;;;;;;;5134313;27;20453;-88
2022/02/08 15:20:27;;;;;;;5.17;0.93;;;;;;;;;;5133351;27;20442;-88
2022/02/08 15:22:56;;;;;;;4.30;0.90;;;;;;;;;;5134991;27;21012;-88
2022/02/08 15:25:25;;;;;;;1.83;1.73;;;;;;;;;;5133985;27;20445;-89
2022/02/08 15:27:52;;;;;;;4.87;1.97;;;;;;;;;;5131519;27;20443;-89
2022/02/08 15:30:19;;;;;;;3.60;2.17;;;;;;;;;;5133676;27;20445;-88
2022/02/08 15:32:49;;;;;;;2.00;1.10;;;8.20;99.90;;;;;;5133750;27;20450;-87
2022/02/08 15:35:16;;;;;;;3.83;3.37;;;;;;;;;;5132857;27;20447;-88
2022/02/08 15:37:43;;;;;;;1.37;0.70;;;;;;;;;;5133809;27;20454;-89
2022/02/08 15:40:13;;;;;;;2.30;1.40;;;8.10;99.90;;;;;;5133903;27;20451;-88
2022/02/08 15:42:41;;;;;;;1.20;0.80;;;;;;;;;;5133641;27;20579;-90
2022/02/08 15:45:16;;;;;;;3.43;1.93;;;8.40;99.90;;;;;;5127369;27;20922;-89
2022/02/08 15:47:43;;;;;;;5.20;1.60;;;;;;;;;;5114215;28;20450;-88
2022/02/08 15:50:17;;;;;;;2.30;1.40;;;;;;;;;;5112901;28;20442;-88
2022/02/08 15:55:34;;;;;;;6.27;1.23;;;;;;;;;;5100760;28;20471;-88
2022/02/08 15:58:07;;;;;;;3.37;0.70;;;;;;;;;;5112878;28;20451;-88
2022/02/08 16:00:49;;;;;;;1.90;1.07;;;;;;;;;;5113347;28;20478;-90
2022/02/08 16:08:50;;;;;;;1.80;0.97;;;;;;;;;;5135705;27;20439;-90
2022/02/08 16:11:39;;;;;;;5.00;2.40;;;;;;;;;;5137856;27;20538;-88
2022/02/08 16:14:14;;;;;;;3.13;0.60;;;;;;;;;;5130634;27;20440;-88
2022/02/08 16:16:54;;;;;;;2.20;1.00;;;;;;;;;;5118257;27;20455;-90
2022/02/08 16:19:31;;;;;;;3.70;1.70;;;;;;;;;;5116095;28;20446;-88
2022/02/08 16:24:55;;;;;;;2.60;1.30;;;;;;;;;;5110995;28;20495;-89
2022/02/08 16:27:35;;;;;;;6.70;1.10;;;;;;;;;;5117948;28;20454;-91
2022/02/08 16:49:47;;;;;;;14.57;8.17;;;;;;;;;;5135836;27;20495;-90
2022/02/08 16:55:14;;;;;;;8.13;2.30;;;7.80;99.90;;;;;;5116620;27;20489;-90
2022/02/08 16:57:53;;;;;;;4.83;1.20;;;;;;;;;;5116023;28;20969;-90
2022/02/08 17:00:22;;;;;;;139.97;56.67;;;;;;;;;;5116121;28;20542;-90
2022/02/08 17:02:56;;;;;;;4.30;1.47;;;;;;;;;;5116229;27;20536;-89
2022/02/08 17:05:24;;;;;;;2.30;1.10;;;7.80;99.90;;;;;;5114636;28;20483;-90
2022/02/08 17:07:51;;;;;;;6.27;5.67;;;;;;;;;;5115988;28;20453;-89
2022/02/08 17:10:31;;;;;;;6.87;4.53;;;7.80;99.90;;;;;;5115313;28;20555;-89
2022/02/08 17:13:07;;;;;;;3.13;2.80;;;;;;;;;;5115499;28;20814;-88
2022/02/08 17:15:51;;;;;;;3.80;2.77;;;7.90;99.90;;;;;;5115601;28;20451;-89
2022/02/08 17:35:27;;;;;;;4.20;1.23;;;;;;;;;;5115471;28;20446;-89
2022/02/08 17:45:58;;;;;;;2.40;1.80;;;;;;;;;;5116186;28;20427;-89
2022/02/08 17:48:25;;;;;;;3.50;1.50;;;;;;;;;;5114454;28;20458;-90
2022/02/08 17:50:53;;;;;;;4.10;1.50;;;;;;;;;;5115505;28;20442;-93
2022/02/08 17:53:22;;;;;;;5.03;1.23;;;;;;;;;;5115638;28;20432;-89
2022/02/08 17:55:49;;;;;;;2.60;1.30;;;;;;;;;;5115560;28;20504;-87
2022/02/08 17:58:19;;;;;;;2.60;1.00;;;7.90;99.90;;;;;;5115626;28;20457;-90
2022/02/08 18:00:48;;;;;;;2.80;1.33;;;;;;;;;;5115668;28;20825;-89
2022/02/08 18:03:16;;;;;;;2.83;0.97;;;;;;;;;;5115849;28;20536;-89
2022/02/08 18:05:44;;;;;;;2.67;1.30;;;;;;;;;;5116329;27;20463;-94
2022/02/08 18:08:12;;;;;;;3.30;1.50;;;;;;;;;;5115909;27;20478;-92
2022/02/08 18:10:39;;;;;;;3.73;1.10;;;;;;;;;;5115959;28;20448;-90
2022/02/08 18:13:12;;;;;;;4.10;1.30;;;;;;;;;;5115670;28;20468;-93
2022/02/08 18:15:44;;;;;;;4.20;1.87;;;7.70;99.90;;;;;;5115700;28;20939;-91
2022/02/08 18:18:20;;;;;;;4.03;1.63;;;;;;;;;;5080592;28;20447;-93
2022/02/08 18:20:51;;;;;;;6.00;2.00;;;;;;;;;;5115697;28;20470;-93
2022/02/08 18:23:38;;;;;;;3.33;1.53;;;;;;;;;;5115476;28;20491;-93
2022/02/08 18:27:18;;;;;;;3.70;1.83;;;;;;;;;;5116612;28;20554;-91
2022/02/08 18:57:11;;;;;;;9.87;5.07;;;;;;;;;;5095076;28;20448;-91
2022/02/08 19:21:37;;;;;;;14.70;13.27;;;7.60;99.90;;;;;;5083267;28;20452;-92
2022/02/08 19:24:05;;;;;;;14.30;9.67;;;;;;;;;;5087808;28;20499;-91
2022/02/08 19:26:32;;;;;;;3.20;1.77;;;;;;;;;;5089619;28;20460;-91
2022/02/08 19:28:59;;;;;;;3.93;2.93;;;;;;;;;;5089358;28;20441;-92
2022/02/08 19:31:27;;;;;;;6.93;2.43;;;;;;;;;;5086124;28;20441;-91
2022/02/08 19:33:56;;;;;;;4.17;2.20;;;;;;;;;;5086389;28;20519;-90
2022/02/08 19:36:24;;;;;;;8.23;2.50;;;;;;;;;;5084822;28;20476;-91
2022/02/08 19:38:52;;;;;;;3.40;1.90;;;7.60;99.90;;;;;;5085175;28;20445;-93
2022/02/08 19:41:21;;;;;;;3.73;1.87;;;7.60;99.90;;;;;;5085760;28;20452;-91
2022/02/08 19:43:48;;;;;;;4.10;2.03;;;;;;;;;;5089129;28;20500;-92
2022/02/08 19:46:15;;;;;;;4.47;1.90;;;;;;;;;;5093299;28;20452;-93
2022/02/08 19:48:43;;;;;;;6.43;2.67;;;;;;;;;;5093204;28;20444;-90
2022/02/08 19:51:10;;;;;;;10.17;6.73;;;;;;;;;;5102281;28;20432;-90
2022/02/08 19:53:37;;;;;;;3.67;2.40;;;;;;;;;;5096441;28;20569;-91
2022/02/08 19:56:24;;;;;;;5.10;2.07;;;7.40;99.90;;;;;;5090269;28;20462;-91
2022/02/08 19:58:56;;;;;;;5.53;2.30;;;7.40;99.90;;;;;;5089163;28;20452;-91
2022/02/08 20:01:27;;;;;;;9.77;2.57;;;;;;;;;;5088480;28;20459;-92
2022/02/08 20:03:59;;;;;;;4.50;2.60;;;;;;;;;;5090161;28;20511;-90
2022/02/08 20:06:31;;;;;;;5.03;2.00;;;;;;;;;;5089681;28;20910;-92
2022/02/08 20:08:58;;;;;;;5.30;2.23;;;;;;;;;;5087712;28;20438;-91
2022/02/08 20:11:26;;;;;;;3.57;1.87;;;7.40;99.90;;;;;;5088413;28;20448;-92
2022/02/08 20:13:57;;;;;;;7.10;1.97;;;;;;;;;;5088445;28;20822;-92
2022/02/08 20:16:24;;;;;;;6.83;4.40;;;;;;;;;;5092122;28;20449;-91
2022/02/08 20:18:54;;;;;;;12.43;3.40;;;;;;;;;;5089669;28;20449;-91
2022/02/08 20:21:23;;;;;;;9.53;2.70;;;;;;;;;;5088908;28;20485;-91
2022/02/08 20:23:51;;;;;;;7.70;2.53;;;;;;;;;;5089349;28;20496;-87
2022/02/08 21:50:26;;;;;;;6.97;4.10;;;6.70;99.90;;;;;;4996490;28;20444;-90
2022/02/08 21:52:53;;;;;;;13.83;3.90;;;;;;;;;;4996984;28;20445;-92
2022/02/08 21:55:20;;;;;;;7.80;3.60;;;;;;;;;;4996812;28;20463;-87
2022/02/08 21:57:53;;;;;;;9.17;4.10;;;;;;;;;;4992006;28;20463;-92
2022/02/08 22:00:22;;;;;;;6.50;3.47;;;;;;;;;;4996487;28;20453;-93
2022/02/08 22:02:51;;;;;;;9.90;3.80;;;6.60;99.90;;;;;;4996612;28;20501;-90
2022/02/08 22:05:18;;;;;;;7.93;3.60;;;;;;;;;;4994041;28;20456;-93
2022/02/08 22:08:01;;;;;;;14.43;6.30;;;;;;;;;;4995930;28;20475;-90
2022/02/08 22:15:46;;;;;;;6.70;3.50;;;;;;;;;;4992968;28;20465;-90
2022/02/08 22:16:13;;;;;;;9.97;3.50;;;6.60;99.90;;;;;;4995061;28;20471;-92
2022/02/08 22:18:48;;;;;;;6.00;3.13;;;6.60;99.90;;;;;;4994473;28;20884;-89
2022/02/08 22:21:20;;;;;;;5.63;3.13;;;;;;;;;;4995670;28;20455;-88
2022/02/08 22:23:53;;;;;;;5.43;2.40;;;;;;;;;;4978582;28;20551;-91
2022/02/08 22:26:53;;;;;;;3.97;3.13;;;6.50;99.90;;;;;;4992536;28;20535;-89
2022/02/08 22:29:28;;;;;;;5.40;2.63;;;;;;;;;;4995057;28;20457;-90
2022/02/08 22:32:01;;;;;;;4.73;2.80;;;;;;;;;;4995028;28;20461;-89